Weather at Hong Kong International Airport

Public forecast

Using degrees Celsius for public forecast. Weather courtesy of forecast.io.

Current aviation weather report (METAR) for Hong Kong International Airport

Report is more than 6 hours old.

2022/11/14 15:30 (retrieved 2 years ago)

VHHH 141530Z 10006KT 9999 FEW035 25/19 Q1016 NOSIG

Aviation forecast (TAF) for Hong Kong International Airport

Forecast is more than 12 hours old.

2023/02/22 21:03 (retrieved 1 year ago)

TAF VHHH 222000Z 2221/2403 08010KT 9999 FEW025 TX23/2306Z TN15/2223Z TN16/2323Z BECMG 2303/2305 28010KT BECMG 2310/2312 10010KT